createdAt,value
2022-10-31T00:01:43.040Z,22.35
2022-10-31T00:04:10.917Z,23.83
2022-10-31T00:06:40.146Z,23.30
2022-10-31T00:09:08.086Z,22.70
2022-10-31T00:11:35.963Z,21.75
2022-10-31T00:14:03.948Z,20.60
2022-10-31T00:16:32.255Z,21.98
2022-10-31T00:19:01.685Z,21.10
2022-10-31T00:21:30.462Z,21.88
2022-10-31T00:24:00.680Z,21.58
2022-10-31T00:26:29.206Z,22.33
2022-10-31T00:28:57.092Z,20.45
2022-10-31T00:31:24.917Z,21.90
2022-10-31T00:33:52.910Z,20.63
2022-10-31T00:36:21.386Z,21.70
2022-10-31T00:38:50.015Z,20.25
2022-10-31T00:41:19.789Z,19.92
2022-10-31T00:43:47.881Z,19.52
2022-10-31T00:46:15.717Z,20.45
2022-10-31T00:48:43.559Z,19.83
2022-10-31T00:51:11.806Z,19.52
2022-10-31T00:53:41.232Z,19.30
2022-10-31T00:56:09.239Z,20.17
2022-10-31T00:58:39.019Z,19.70
2022-10-31T01:01:08.577Z,21.00
2022-10-31T01:03:36.755Z,20.92
2022-10-31T01:06:06.461Z,20.05
2022-10-31T01:08:34.907Z,20.02
2022-10-31T01:11:06.067Z,20.02
2022-10-31T01:13:34.622Z,18.55
2022-10-31T01:16:05.734Z,20.38
2022-10-31T01:18:34.803Z,19.20
2022-10-31T01:21:04.062Z,18.42
2022-10-31T01:23:32.357Z,18.30
2022-10-31T01:26:05.822Z,18.08
2022-10-31T01:28:34.334Z,18.33
2022-10-31T01:31:04.663Z,17.88
2022-10-31T01:33:32.782Z,17.35
2022-10-31T01:36:00.889Z,17.17
2022-10-31T01:38:29.337Z,17.45
2022-10-31T01:40:57.183Z,16.13
2022-10-31T01:43:25.191Z,16.48
2022-10-31T01:45:55.555Z,16.98
2022-10-31T01:48:29.296Z,16.48
2022-10-31T01:50:57.682Z,16.90
2022-10-31T01:53:27.071Z,17.05
2022-10-31T01:55:55.289Z,16.23
2022-10-31T01:58:25.385Z,16.67
2022-10-31T02:00:56.523Z,16.52
2022-10-31T02:03:26.152Z,17.15
2022-10-31T02:05:55.525Z,16.10
2022-10-31T02:08:27.554Z,16.60
2022-10-31T02:10:56.420Z,18.33
2022-10-31T02:16:55.136Z,16.67
2022-10-31T02:19:29.845Z,15.68
2022-10-31T02:22:01.297Z,15.57
2022-10-31T02:24:45.079Z,14.82
2022-10-31T02:27:34.669Z,15.48
2022-10-31T02:30:08.934Z,15.15
2022-10-31T02:33:01.674Z,16.20
2022-10-31T02:38:07.161Z,14.57
2022-10-31T02:40:38.590Z,15.27
2022-10-31T02:43:29.608Z,15.43
2022-10-31T02:46:00.352Z,15.73
2022-10-31T02:48:31.463Z,15.00
2022-10-31T02:51:01.806Z,14.32
2022-10-31T02:53:34.160Z,15.88
2022-10-31T02:56:04.236Z,14.75
2022-10-31T02:58:35.136Z,14.18
2022-10-31T03:01:33.975Z,14.85
2022-10-31T03:04:27.756Z,14.38
2022-10-31T03:06:59.634Z,14.10
2022-10-31T03:09:35.108Z,14.32
2022-10-31T03:12:09.511Z,13.95
2022-10-31T03:14:43.295Z,14.63
2022-10-31T03:17:16.957Z,14.90
2022-10-31T03:19:49.016Z,14.73
2022-10-31T03:22:19.365Z,15.00
2022-10-31T03:24:49.758Z,14.43
2022-10-31T03:27:21.071Z,14.68
2022-10-31T03:29:49.462Z,13.82
2022-10-31T03:32:19.457Z,14.25
2022-10-31T03:34:49.696Z,14.77
2022-10-31T03:37:20.348Z,14.60
2022-10-31T03:39:50.161Z,14.23
2022-10-31T03:42:21.068Z,14.45
2022-10-31T03:44:56.015Z,15.00
2022-10-31T03:47:24.537Z,14.15
2022-10-31T03:49:53.977Z,14.82
2022-10-31T03:52:27.050Z,15.13
2022-10-31T03:54:58.486Z,14.98
2022-10-31T03:57:31.961Z,15.45
2022-10-31T04:00:03.289Z,14.52
2022-10-31T04:02:34.830Z,14.18
2022-10-31T04:05:04.787Z,13.93
2022-10-31T04:07:34.819Z,14.88
2022-10-31T04:10:04.722Z,14.15
2022-10-31T04:12:33.093Z,14.25
2022-10-31T04:15:17.876Z,14.55
2022-10-31T04:17:47.637Z,14.55
2022-10-31T04:20:19.271Z,14.07
2022-10-31T04:22:47.249Z,14.93
2022-10-31T04:25:15.081Z,14.43
2022-10-31T04:27:42.909Z,13.32
2022-10-31T04:30:12.043Z,13.68
2022-10-31T04:32:41.925Z,14.52
2022-10-31T04:35:10.005Z,13.77
2022-10-31T04:37:40.056Z,13.65
2022-10-31T04:40:08.934Z,13.40
2022-10-31T04:42:59.901Z,14.23
2022-10-31T04:45:29.558Z,14.02
2022-10-31T04:47:57.602Z,13.88
2022-10-31T04:50:25.686Z,14.20
2022-10-31T04:52:54.885Z,14.55
2022-10-31T04:55:26.972Z,13.68
2022-10-31T04:58:00.984Z,13.32
2022-10-31T05:00:29.261Z,13.98
2022-10-31T05:02:58.719Z,14.57
2022-10-31T05:05:30.236Z,13.63
2022-10-31T05:08:01.052Z,14.63
2022-10-31T05:10:32.174Z,14.30
2022-10-31T05:13:03.561Z,14.25
2022-10-31T05:16:01.170Z,13.45
2022-10-31T05:19:04.219Z,12.85
2022-10-31T05:21:38.128Z,12.48
2022-10-31T05:24:08.352Z,13.95
2022-10-31T05:26:37.002Z,14.25
2022-10-31T05:29:05.460Z,13.80
2022-10-31T05:31:33.442Z,14.57
2022-10-31T05:34:02.505Z,14.57
2022-10-31T05:37:02.174Z,14.00
2022-10-31T05:39:31.480Z,13.98
2022-10-31T05:42:05.030Z,13.32
2022-10-31T05:44:32.899Z,14.05
2022-10-31T05:47:20.979Z,14.80
2022-10-31T05:49:57.442Z,16.40
2022-10-31T05:52:43.674Z,17.67
2022-10-31T05:55:29.537Z,16.80
2022-10-31T05:58:05.823Z,18.67
2022-10-31T06:00:36.319Z,18.42
2022-10-31T06:03:10.479Z,20.58
2022-10-31T06:06:07.823Z,19.95
2022-10-31T06:08:42.238Z,20.73
2022-10-31T06:11:21.054Z,22.85
2022-10-31T06:14:04.258Z,22.60
2022-10-31T06:16:39.682Z,22.23
2022-10-31T06:19:36.627Z,22.92
2022-10-31T06:22:04.654Z,24.30
2022-10-31T06:24:34.389Z,24.73
2022-10-31T06:27:07.938Z,23.48
2022-10-31T06:29:35.916Z,24.02
2022-10-31T06:32:12.044Z,24.77
2022-10-31T06:34:43.716Z,25.20
2022-10-31T06:37:13.304Z,22.35
2022-10-31T06:39:44.477Z,23.80
2022-10-31T06:42:17.337Z,22.92
2022-10-31T06:44:45.503Z,24.23
2022-10-31T06:47:31.969Z,24.80
2022-10-31T06:50:05.756Z,24.45
2022-10-31T06:52:33.604Z,24.83
2022-10-31T06:55:01.416Z,28.42
2022-10-31T06:57:31.185Z,30.00
2022-10-31T06:59:59.154Z,31.13
2022-10-31T07:02:55.129Z,31.45
2022-10-31T07:05:24.742Z,32.47
2022-10-31T07:07:54.704Z,34.08
2022-10-31T07:10:23.377Z,32.03
2022-10-31T07:12:59.137Z,32.90
2022-10-31T07:15:28.016Z,33.30
2022-10-31T07:17:56.032Z,35.10
2022-10-31T07:20:23.921Z,32.20
2022-10-31T07:22:52.022Z,35.30
2022-10-31T07:25:20.432Z,36.08
2022-10-31T07:28:08.683Z,37.15
2022-10-31T07:30:36.759Z,35.95
2022-10-31T07:33:05.934Z,35.92
2022-10-31T07:35:54.078Z,30.73
2022-10-31T07:38:25.262Z,35.67
2022-10-31T07:40:54.596Z,35.92
2022-10-31T07:43:24.688Z,36.15
2022-10-31T07:46:18.565Z,35.22
2022-10-31T07:49:05.232Z,35.83
2022-10-31T07:51:51.532Z,32.63
2022-10-31T07:54:19.360Z,38.42
2022-10-31T07:56:48.038Z,40.45
2022-10-31T07:59:17.312Z,40.40
2022-10-31T08:01:45.147Z,38.53
2022-10-31T08:04:35.864Z,37.97
2022-10-31T08:07:41.703Z,38.72
2022-10-31T08:10:17.885Z,39.22
2022-10-31T08:12:45.956Z,37.92
2022-10-31T08:15:15.544Z,37.53
2022-10-31T08:17:43.490Z,35.05
2022-10-31T08:20:12.677Z,37.25
2022-10-31T08:22:55.081Z,37.03
2022-10-31T08:25:23.022Z,37.35
2022-10-31T08:27:52.525Z,37.67
2022-10-31T08:30:24.004Z,36.85
2022-10-31T08:33:13.758Z,37.30
2022-10-31T08:36:00.405Z,38.38
2022-10-31T08:38:46.776Z,37.72
2022-10-31T08:41:14.735Z,38.33
2022-10-31T08:43:42.722Z,37.40
2022-10-31T08:46:11.980Z,34.95
2022-10-31T08:48:41.885Z,35.90
2022-10-31T08:51:11.504Z,38.65
2022-10-31T08:53:39.375Z,38.75
2022-10-31T08:56:25.697Z,38.13
2022-10-31T08:58:54.918Z,37.75
2022-10-31T09:01:33.724Z,38.58
2022-10-31T09:04:02.042Z,36.33
2022-10-31T09:06:29.961Z,36.88
2022-10-31T09:08:58.048Z,37.45
2022-10-31T09:11:27.111Z,38.92
2022-10-31T09:14:17.516Z,29.67
2022-10-31T09:17:05.398Z,33.60
2022-10-31T09:19:51.041Z,33.80
2022-10-31T09:22:18.983Z,33.58
2022-10-31T09:24:47.015Z,31.75
2022-10-31T09:27:16.802Z,29.63
2022-10-31T09:32:16.745Z,28.70
2022-10-31T09:34:47.541Z,29.48
2022-10-31T09:37:22.256Z,28.70
2022-10-31T09:39:50.859Z,28.92
2022-10-31T09:42:39.435Z,26.17
2022-10-31T09:45:18.385Z,26.98
2022-10-31T09:50:48.774Z,25.20
2022-10-31T09:53:42.313Z,24.05
2022-10-31T09:56:14.068Z,18.75
2022-10-31T09:58:45.209Z,24.45
2022-10-31T10:01:24.491Z,24.02
2022-10-31T10:03:57.107Z,23.90
2022-10-31T10:06:58.039Z,23.35
2022-10-31T10:09:44.156Z,23.55
2022-10-31T10:13:02.224Z,23.00
2022-10-31T10:15:45.300Z,23.42
2022-10-31T10:18:21.473Z,22.98
2022-10-31T10:20:59.578Z,23.17
2022-10-31T10:23:37.759Z,22.85
2022-10-31T10:26:15.895Z,22.52
2022-10-31T10:28:46.825Z,21.98
2022-10-31T10:31:17.208Z,21.27
2022-10-31T10:33:51.806Z,22.42
2022-10-31T10:36:24.904Z,22.00
2022-10-31T10:38:54.821Z,21.42
2022-10-31T10:41:24.395Z,21.05
2022-10-31T10:43:55.120Z,20.92
2022-10-31T10:46:47.414Z,20.27
2022-10-31T10:49:19.284Z,20.67
2022-10-31T10:52:02.772Z,20.40
2022-10-31T10:54:52.063Z,21.80
2022-10-31T10:57:30.169Z,20.15
2022-10-31T10:59:58.194Z,20.48
2022-10-31T11:02:27.594Z,19.17
2022-10-31T11:04:57.420Z,18.83
2022-10-31T11:07:26.596Z,18.75
2022-10-31T11:10:05.938Z,17.90
2022-10-31T11:12:35.492Z,18.33
2022-10-31T11:15:09.857Z,17.98
2022-10-31T11:17:40.364Z,18.45
2022-10-31T11:20:26.920Z,18.13
2022-10-31T11:23:04.155Z,18.48
2022-10-31T11:25:32.091Z,16.35
2022-10-31T11:28:04.094Z,15.65
2022-10-31T11:30:32.809Z,15.48
2022-10-31T11:33:01.069Z,16.45
2022-10-31T11:35:29.603Z,15.38
2022-10-31T11:38:01.463Z,14.93
2022-10-31T11:40:29.527Z,13.68
2022-10-31T11:42:59.993Z,15.68
2022-10-31T11:45:33.538Z,14.43
2022-10-31T11:48:03.397Z,15.18
2022-10-31T11:50:36.039Z,14.30
2022-10-31T11:53:05.466Z,14.32
2022-10-31T11:55:35.191Z,14.48
2022-10-31T11:58:03.906Z,14.00
2022-10-31T12:00:33.641Z,14.68
2022-10-31T12:03:14.472Z,14.07
2022-10-31T12:05:44.106Z,13.95
2022-10-31T12:08:14.734Z,13.27
2022-10-31T12:10:47.623Z,14.02
2022-10-31T12:15:52.704Z,12.80
2022-10-31T12:18:30.492Z,13.85
2022-10-31T12:21:11.511Z,12.50
2022-10-31T12:23:48.394Z,14.00
2022-10-31T12:26:19.740Z,13.32
2022-10-31T12:29:08.998Z,12.38
2022-10-31T12:31:47.782Z,12.57
2022-10-31T12:34:55.499Z,12.23
2022-10-31T12:37:34.302Z,12.00
2022-10-31T12:40:25.952Z,12.75
2022-10-31T12:43:18.432Z,13.18
2022-10-31T12:45:54.159Z,11.80
2022-10-31T12:48:36.442Z,11.88
2022-10-31T12:51:08.789Z,12.30
2022-10-31T12:53:47.598Z,11.80
2022-10-31T12:56:29.425Z,10.82
2022-10-31T12:59:01.721Z,10.70
2022-10-31T13:01:33.373Z,11.80
2022-10-31T13:04:05.302Z,9.45
2022-10-31T13:06:42.026Z,10.15
2022-10-31T13:09:14.237Z,10.98
2022-10-31T13:11:46.290Z,9.68
2022-10-31T13:14:23.244Z,9.30
2022-10-31T13:16:51.361Z,9.70
2022-10-31T13:19:22.319Z,8.75
2022-10-31T13:21:56.830Z,9.27
2022-10-31T13:24:29.307Z,9.30
2022-10-31T13:27:00.632Z,8.70
2022-10-31T13:29:32.843Z,9.60
2022-10-31T13:32:01.942Z,8.45
2022-10-31T13:34:32.655Z,9.05
2022-10-31T13:37:06.521Z,9.68
2022-10-31T13:39:48.844Z,8.70
2022-10-31T13:42:24.737Z,8.73
2022-10-31T13:44:52.595Z,9.73
2022-10-31T13:47:24.928Z,9.93
2022-10-31T13:49:52.873Z,9.65
2022-10-31T13:52:26.279Z,9.50
2022-10-31T13:54:57.644Z,8.68
2022-10-31T13:57:34.667Z,9.35
2022-10-31T14:00:06.087Z,9.55
2022-10-31T14:02:47.331Z,8.68
2022-10-31T14:05:24.470Z,10.30
2022-10-31T14:07:53.685Z,9.18
2022-10-31T14:10:28.828Z,9.05
2022-10-31T14:13:06.364Z,8.30
2022-10-31T14:15:34.401Z,9.60
2022-10-31T14:18:03.921Z,8.45
2022-10-31T14:20:39.149Z,8.00
2022-10-31T14:23:36.873Z,9.30
2022-10-31T14:26:38.143Z,8.75
2022-10-31T14:29:27.230Z,8.68
2022-10-31T14:32:08.455Z,9.30
2022-10-31T14:34:37.812Z,8.98
2022-10-31T14:37:30.416Z,9.13
2022-10-31T14:40:08.550Z,9.40
2022-10-31T14:42:52.045Z,9.25
2022-10-31T14:45:31.107Z,9.07
2022-10-31T14:48:13.704Z,8.68
2022-10-31T14:50:49.402Z,7.70
2022-10-31T14:53:21.882Z,8.98
2022-10-31T14:55:50.713Z,8.95
2022-10-31T14:58:23.002Z,8.65
2022-10-31T15:00:53.803Z,9.18
2022-10-31T15:03:26.624Z,9.07
2022-10-31T15:05:57.945Z,9.10
2022-10-31T15:08:35.436Z,9.98
2022-10-31T15:11:13.124Z,9.20
2022-10-31T15:13:46.124Z,9.02
2022-10-31T15:16:17.233Z,10.43
2022-10-31T15:18:54.900Z,9.85
2022-10-31T15:21:24.496Z,10.23
2022-10-31T15:23:54.237Z,10.52
2022-10-31T15:26:23.468Z,9.75
2022-10-31T15:29:01.846Z,10.18
2022-10-31T15:31:31.935Z,10.02
2022-10-31T15:34:09.088Z,9.32
2022-10-31T15:36:38.725Z,9.52
2022-10-31T15:39:06.731Z,9.82
2022-10-31T15:41:36.495Z,10.73
2022-10-31T15:44:22.941Z,9.88
2022-10-31T15:46:57.272Z,9.68
2022-10-31T15:49:35.129Z,10.70
2022-10-31T15:52:09.273Z,10.68
2022-10-31T15:54:37.929Z,11.15
2022-10-31T15:57:06.482Z,10.52
2022-10-31T15:59:34.443Z,10.48
2022-10-31T16:02:09.952Z,10.25
2022-10-31T16:04:37.951Z,10.73
2022-10-31T16:07:21.816Z,10.65
2022-10-31T16:09:52.367Z,11.10
2022-10-31T16:12:22.607Z,11.63
2022-10-31T16:14:51.253Z,12.52
2022-10-31T16:17:23.011Z,11.20
2022-10-31T16:19:54.872Z,11.55
2022-10-31T16:22:25.932Z,11.07
2022-10-31T16:24:57.593Z,11.88
2022-10-31T16:27:29.483Z,11.30
2022-10-31T16:30:02.268Z,11.88
2022-10-31T16:32:35.561Z,11.80
2022-10-31T16:35:20.103Z,11.38
2022-10-31T16:37:47.906Z,11.57
2022-10-31T16:40:16.622Z,11.82
2022-10-31T16:42:45.418Z,11.57
2022-10-31T16:45:18.200Z,12.80
2022-10-31T16:47:47.485Z,11.50
2022-10-31T16:50:17.839Z,11.93
2022-10-31T16:53:08.391Z,12.38
2022-10-31T16:55:35.921Z,12.43
2022-10-31T16:58:04.238Z,11.65
2022-10-31T17:00:32.683Z,12.90
2022-10-31T17:03:02.208Z,12.07
2022-10-31T17:05:32.891Z,12.50
2022-10-31T17:08:01.264Z,11.60
2022-10-31T17:10:29.429Z,12.23
2022-10-31T17:12:57.957Z,12.95
2022-10-31T17:15:27.671Z,12.43
2022-10-31T17:17:56.221Z,13.00
2022-10-31T17:20:28.245Z,13.50
2022-10-31T17:22:56.985Z,12.95
2022-10-31T17:25:27.323Z,14.25
2022-10-31T17:27:55.202Z,14.00
2022-10-31T17:30:23.977Z,15.10
2022-10-31T17:32:52.149Z,17.17
2022-10-31T17:35:20.603Z,16.95
2022-10-31T17:37:50.159Z,16.85
2022-10-31T17:40:20.593Z,16.17
2022-10-31T17:42:52.380Z,16.20
2022-10-31T17:45:21.308Z,15.40
2022-10-31T17:47:49.853Z,13.88
2022-10-31T17:50:18.640Z,15.40
2022-10-31T17:52:46.778Z,14.88
2022-10-31T17:55:16.747Z,15.02
2022-10-31T17:57:45.189Z,15.88
2022-10-31T18:00:14.787Z,14.48
2022-10-31T18:02:42.740Z,13.45
2022-10-31T18:05:11.029Z,13.68
2022-10-31T18:07:38.899Z,15.10
2022-10-31T18:10:08.032Z,15.85
2022-10-31T18:12:38.517Z,16.67
2022-10-31T18:15:07.404Z,16.52
2022-10-31T18:17:36.960Z,16.20
2022-10-31T18:20:08.410Z,16.70
2022-10-31T18:22:36.238Z,16.25
2022-10-31T18:25:04.654Z,15.82
2022-10-31T18:27:32.598Z,15.25
2022-10-31T18:30:02.043Z,16.33
2022-10-31T18:32:29.910Z,14.98
2022-10-31T18:34:57.752Z,15.98
2022-10-31T18:37:25.560Z,17.10
2022-10-31T18:39:53.576Z,16.25
2022-10-31T18:42:21.376Z,17.67
2022-10-31T18:44:49.212Z,16.33
2022-10-31T18:47:19.178Z,17.13
2022-10-31T18:49:47.004Z,15.18
2022-10-31T18:52:14.779Z,15.15
2022-10-31T18:54:42.723Z,15.25
2022-10-31T18:57:10.509Z,13.95
2022-10-31T18:59:38.491Z,14.82
2022-10-31T19:02:06.478Z,14.73
2022-10-31T19:04:35.803Z,13.43
2022-10-31T19:07:03.682Z,13.27
2022-10-31T19:09:31.906Z,13.40
2022-10-31T19:11:59.691Z,13.98
2022-10-31T19:14:27.544Z,13.57
2022-10-31T19:16:58.326Z,13.38
2022-10-31T19:19:28.962Z,12.75
2022-10-31T19:21:58.187Z,12.90
2022-10-31T19:24:26.094Z,11.90
2022-10-31T19:26:54.205Z,15.88
2022-10-31T19:29:22.124Z,12.07
2022-10-31T19:31:49.955Z,13.20
2022-10-31T19:34:17.841Z,13.95
2022-10-31T19:36:45.756Z,12.35
2022-10-31T19:39:15.290Z,13.82
2022-10-31T19:41:43.158Z,14.40
2022-10-31T19:44:13.372Z,15.20
2022-10-31T19:49:21.511Z,14.90
2022-10-31T19:51:49.438Z,14.30
2022-10-31T19:54:18.905Z,15.32
2022-10-31T19:56:46.834Z,14.90
2022-10-31T19:59:14.919Z,14.50
2022-10-31T20:01:43.010Z,13.65
2022-10-31T20:04:11.210Z,13.65
2022-10-31T20:06:41.101Z,14.75
2022-10-31T20:09:10.668Z,14.48
2022-10-31T20:11:40.244Z,13.73
2022-10-31T20:14:08.882Z,13.88
2022-10-31T20:16:37.068Z,14.40
2022-10-31T20:19:05.372Z,14.90
2022-10-31T20:21:38.114Z,14.75
2022-10-31T20:24:08.364Z,15.38
2022-10-31T20:26:37.945Z,15.48
2022-10-31T20:29:07.347Z,16.73
2022-10-31T20:31:37.113Z,15.60
2022-10-31T20:34:05.233Z,15.32
2022-10-31T20:36:33.116Z,14.90
2022-10-31T20:39:01.401Z,15.77
2022-10-31T20:41:29.487Z,14.48
2022-10-31T20:43:57.468Z,16.38
2022-10-31T20:46:27.906Z,15.93
2022-10-31T20:48:56.412Z,16.40
2022-10-31T20:51:25.777Z,16.10
2022-10-31T20:53:55.079Z,15.32
2022-10-31T20:56:24.840Z,15.45
2022-10-31T20:58:53.515Z,16.35
2022-10-31T21:01:23.330Z,16.60
2022-10-31T21:03:52.931Z,16.25
2022-10-31T21:06:23.187Z,15.70
2022-10-31T21:08:51.754Z,17.25
2022-10-31T21:11:21.322Z,16.60
2022-10-31T21:13:50.094Z,16.15
2022-10-31T21:16:20.057Z,15.60
2022-10-31T21:18:49.176Z,18.58
2022-10-31T21:21:19.678Z,17.83
2022-10-31T21:23:48.044Z,18.02
2022-10-31T21:26:17.717Z,18.35
2022-10-31T21:28:46.073Z,17.67
2022-10-31T21:31:16.118Z,17.88
2022-10-31T21:33:44.948Z,17.60
2022-10-31T21:36:13.395Z,18.98
2022-10-31T21:38:42.624Z,20.08
2022-10-31T21:41:11.905Z,17.30
2022-10-31T21:43:41.085Z,18.90
2022-10-31T21:46:10.502Z,20.00
2022-10-31T21:48:41.344Z,20.05
2022-10-31T21:51:10.733Z,21.00
2022-10-31T21:53:56.628Z,20.90
2022-10-31T21:56:26.315Z,21.60
2022-10-31T21:58:54.957Z,20.88
2022-10-31T22:01:24.467Z,20.70
2022-10-31T22:03:52.489Z,22.27
2022-10-31T22:06:20.473Z,22.95
2022-10-31T22:08:48.492Z,22.45
2022-10-31T22:11:18.545Z,22.63
2022-10-31T22:13:49.331Z,24.02
2022-10-31T22:16:18.367Z,24.38
2022-10-31T22:18:46.440Z,23.80
2022-10-31T22:21:16.088Z,23.15
2022-10-31T22:23:44.528Z,23.02
2022-10-31T22:26:17.217Z,20.55
2022-10-31T22:28:48.655Z,23.65
2022-10-31T22:31:18.208Z,22.70
2022-10-31T22:33:46.552Z,21.75
2022-10-31T22:36:16.967Z,24.13
2022-10-31T22:38:45.854Z,22.50
2022-10-31T22:41:18.022Z,21.65
2022-10-31T22:43:45.978Z,19.67
2022-10-31T22:46:16.343Z,19.65
2022-10-31T22:48:45.799Z,19.80
2022-10-31T22:51:15.452Z,16.13
2022-10-31T22:53:43.726Z,18.73
2022-10-31T22:56:13.030Z,19.45
2022-10-31T22:58:41.025Z,19.02
2022-10-31T23:01:09.510Z,18.73
2022-10-31T23:03:39.546Z,18.33
2022-10-31T23:06:09.019Z,15.75
2022-10-31T23:08:38.114Z,13.75
2022-10-31T23:11:15.176Z,15.80
2022-10-31T23:14:00.480Z,14.10
2022-10-31T23:16:28.304Z,16.33
2022-10-31T23:18:57.515Z,15.95
2022-10-31T23:21:55.075Z,16.50
2022-10-31T23:24:24.649Z,16.23
2022-10-31T23:27:07.770Z,14.70
2022-10-31T23:32:04.879Z,15.57
2022-10-31T23:34:34.109Z,16.13
2022-10-31T23:37:02.085Z,15.65
2022-10-31T23:39:29.966Z,15.57
2022-10-31T23:41:57.858Z,15.00
2022-10-31T23:44:25.670Z,15.00
2022-10-31T23:46:53.524Z,15.07
2022-10-31T23:49:21.640Z,16.58
2022-10-31T23:51:51.112Z,16.92
2022-10-31T23:54:19.185Z,16.65
2022-10-31T23:56:47.009Z,16.50
2022-10-31T23:59:14.838Z,16.17
